EEST,Max TemperatureF,Mean TemperatureF,Min TemperatureF,Max Dew PointF,MeanDew PointF,Min DewpointF,Max Humidity, Mean Humidity, Min Humidity, Max Sea Level PressureIn, Mean Sea Level PressureIn, Min Sea Level PressureIn, Max VisibilityMiles, Mean VisibilityMiles, Min VisibilityMiles, Max Wind SpeedMPH, Mean Wind SpeedMPH, Max Gust SpeedMPH,PrecipitationIn, CloudCover, Events, WindDirDegrees
2013-3-1,57,49,41,39,37,34,81,63,47,30.18,30.08,30.01,6,6,6,9,3,,0.00,1,,235
2013-3-2,59,49,39,45,41,36,87,71,55,30.01,29.92,29.89,6,6,6,9,4,,0.00,2,,301
2013-3-3,55,52,48,45,40,37,82,66,54,29.95,29.84,29.77,6,6,6,28,12,40,0.00,5,Rain,345
2013-3-4,60,51,42,39,36,34,76,57,36,30.15,30.04,29.95,6,6,6,12,4,,0.00,1,,328
2013-3-5,59,50,41,41,35,32,76,58,44,30.42,30.31,30.15,6,6,6,12,5,,0.00,3,,360
2013-3-6,57,47,37,39,35,30,81,60,41,30.39,30.25,30.15,6,6,6,7,1,,0.00,5,,203
2013-3-7,57,52,48,50,46,39,94,79,66,30.15,30.01,29.92,6,6,6,7,1,,0.00,7,Rain,305
2013-3-8,62,55,48,54,51,48,100,88,63,29.92,29.87,29.83,6,6,5,5,1,,0.00,5,,190
2013-3-9,69,58,48,57,50,46,100,76,49,29.83,29.76,29.71,6,6,6,12,2,,0.00,3,,268
2013-3-10,66,58,51,52,48,45,82,70,49,29.80,29.76,29.71,6,6,6,13,1,,0.00,2,,170
2013-3-11,71,60,50,57,51,45,100,73,46,29.71,29.61,29.53,6,6,6,14,4,,0.00,2,,248
2013-3-12,68,60,53,46,42,39,67,50,35,29.68,29.61,29.56,6,6,6,18,6,32,0.00,2,,283
2013-3-13,66,56,46,54,46,39,88,65,46,29.71,29.70,29.65,6,6,6,14,3,,0.00,2,,150
2013-3-14,66,62,57,54,50,41,88,66,52,29.71,29.46,29.30,6,6,5,23,11,34,0.00,6,,162
2013-3-15,60,54,46,46,39,37,71,56,45,29.56,29.47,29.39,6,6,6,17,8,26,0.00,3,,251
2013-3-16,55,48,42,39,36,32,76,61,41,29.98,29.79,29.56,6,6,6,12,4,,0.00,4,Rain,336
2013-3-17,55,48,41,36,32,27,71,56,33,30.15,30.08,29.98,6,6,6,9,4,,0.00,2,,332
2013-3-18,55,48,41,48,40,32,82,69,54,30.15,30.06,29.92,6,6,6,10,4,,0.00,6,,161
2013-3-19,64,58,51,54,50,45,94,76,63,29.92,29.83,29.77,6,6,6,13,4,,0.00,3,,148
2013-3-20,66,56,46,55,49,45,94,74,52,29.89,29.86,29.80,6,6,6,13,2,,0.00,4,,185
2013-3-21,68,62,57,57,52,37,100,71,45,29.77,29.63,29.53,6,6,6,23,3,41,0.00,5,,176
2013-3-22,64,58,51,39,34,28,58,41,30,29.74,29.61,29.56,6,6,6,26,17,38,0.00,2,,287
2013-3-23,66,54,41,41,27,14,71,39,15,29.95,29.89,29.77,,,,16,4,,0.00,,,185
2013-3-24,64,53,42,50,46,36,81,69,56,30.01,29.96,29.92,6,6,6,13,4,,0.00,1,,156
2013-3-25,66,58,50,55,51,46,94,74,60,29.95,29.74,29.50,6,6,4,20,6,31,0.00,5,,148
2013-3-26,68,60,51,55,45,41,100,59,43,29.62,29.55,29.50,6,6,5,17,5,,0.00,2,Rain,266
2013-3-27,71,60,48,52,46,39,77,59,43,29.83,29.70,29.62,6,6,6,12,2,,0.00,2,,253
2013-3-28,66,60,51,55,50,45,88,75,59,30.04,29.95,29.83,6,6,5,8,3,,0.00,4,Rain,191
2013-3-29,66,58,51,54,51,48,94,77,59,30.04,30.02,29.98,6,6,6,6,1,,0.00,4,,182
2013-3-30,71,61,51,54,50,45,88,66,46,29.98,29.89,29.83,6,6,6,14,2,,0.00,1,,190
2013-3-31,68,60,53,57,54,48,94,78,64,29.83,29.76,29.71,6,6,6,10,2,,0.00,2,Rain,181
2013-4-1,,,,,,,,,,,,,,,,,,,,,,